createdAt,value
2023-10-20T00:01:58.529Z,79.00
2023-10-20T00:04:26.162Z,76.40
2023-10-20T00:06:53.781Z,71.75
2023-10-20T00:09:21.732Z,78.35
2023-10-20T00:11:49.573Z,76.18
2023-10-20T00:14:17.653Z,79.25
2023-10-20T00:16:45.441Z,79.55
2023-10-20T00:19:13.123Z,77.35
2023-10-20T00:21:40.879Z,77.47
2023-10-20T00:24:08.856Z,73.28
2023-10-20T00:26:36.838Z,74.07
2023-10-20T00:29:04.538Z,82.70
2023-10-20T00:31:32.326Z,75.18
2023-10-20T00:33:59.909Z,75.80
2023-10-20T00:36:29.183Z,80.90
2023-10-20T00:38:56.846Z,82.00
2023-10-20T00:41:24.599Z,80.38
2023-10-20T00:43:52.455Z,80.75
2023-10-20T00:46:20.482Z,76.22
2023-10-20T00:48:48.885Z,75.88
2023-10-20T00:51:16.937Z,79.50
2023-10-20T00:53:45.024Z,77.10
2023-10-20T00:56:13.254Z,74.25
2023-10-20T00:58:40.722Z,75.55
2023-10-20T01:01:08.247Z,73.50
2023-10-20T01:03:37.244Z,76.28
2023-10-20T01:06:05.969Z,78.57
2023-10-20T01:08:33.770Z,76.15
2023-10-20T01:11:01.436Z,82.03
2023-10-20T01:13:29.096Z,81.35
2023-10-20T01:15:57.157Z,82.72
2023-10-20T01:18:24.884Z,74.20
2023-10-20T01:20:52.866Z,73.05
2023-10-20T01:23:20.601Z,82.63
2023-10-20T01:25:48.185Z,76.30
2023-10-20T01:28:17.816Z,74.32
2023-10-20T01:30:46.204Z,79.93
2023-10-20T01:33:13.899Z,80.95
2023-10-20T01:35:41.709Z,86.05
2023-10-20T01:38:09.336Z,90.25
2023-10-20T01:40:36.992Z,87.22
2023-10-20T01:43:05.355Z,101.80
2023-10-20T01:45:33.039Z,94.28
2023-10-20T01:48:00.899Z,97.72
2023-10-20T01:50:28.528Z,95.25
2023-10-20T01:52:56.140Z,98.97
2023-10-20T01:55:23.994Z,101.25
2023-10-20T01:57:52.189Z,104.60
2023-10-20T02:00:20.312Z,94.80
2023-10-20T02:02:48.158Z,100.15
2023-10-20T02:05:15.823Z,96.63
2023-10-20T02:07:44.218Z,96.78
2023-10-20T02:10:11.864Z,99.38
2023-10-20T02:12:39.714Z,96.97
2023-10-20T02:15:09.277Z,93.30
2023-10-20T02:17:37.388Z,88.38
2023-10-20T02:20:05.257Z,91.38
2023-10-20T02:22:33.202Z,83.80
2023-10-20T02:25:00.889Z,88.78
2023-10-20T02:27:29.822Z,87.30
2023-10-20T02:29:59.528Z,86.78
2023-10-20T02:32:27.519Z,84.68
2023-10-20T02:34:56.166Z,82.22
2023-10-20T02:37:23.931Z,87.22
2023-10-20T02:39:52.120Z,81.78
2023-10-20T02:42:19.754Z,77.85
2023-10-20T02:44:47.454Z,74.85
2023-10-20T02:47:15.633Z,74.57
2023-10-20T02:49:43.098Z,68.50
2023-10-20T02:52:14.403Z,69.07
2023-10-20T02:54:42.514Z,71.68
2023-10-20T02:57:11.333Z,73.25
2023-10-20T02:59:38.874Z,70.60
2023-10-20T03:02:06.760Z,71.00
2023-10-20T03:04:34.653Z,69.18
2023-10-20T03:07:02.553Z,72.05
2023-10-20T03:09:30.248Z,69.35
2023-10-20T03:11:57.844Z,73.00
2023-10-20T03:14:25.317Z,75.43
2023-10-20T03:16:53.180Z,78.57
2023-10-20T03:19:20.769Z,82.38
2023-10-20T03:21:49.055Z,81.80
2023-10-20T03:24:16.955Z,89.45
2023-10-20T03:26:44.735Z,87.35
2023-10-20T03:29:12.680Z,90.80
2023-10-20T03:31:42.096Z,85.57
2023-10-20T03:34:11.368Z,82.93
2023-10-20T03:36:39.009Z,85.35
2023-10-20T03:39:21.021Z,83.28
2023-10-20T03:41:50.545Z,91.70
2023-10-20T03:44:18.827Z,84.18
2023-10-20T03:46:50.999Z,84.20
2023-10-20T03:49:19.718Z,83.07
2023-10-20T03:51:54.578Z,86.65
2023-10-20T03:54:26.713Z,79.68
2023-10-20T03:56:58.262Z,81.72
2023-10-20T03:59:25.943Z,82.03
2023-10-20T04:01:53.615Z,77.60
2023-10-20T04:04:21.791Z,81.07
2023-10-20T04:06:51.162Z,80.25
2023-10-20T04:09:19.368Z,78.30
2023-10-20T04:11:47.097Z,82.60
2023-10-20T04:14:15.322Z,76.65
2023-10-20T04:16:43.710Z,78.00
2023-10-20T04:19:12.559Z,81.47
2023-10-20T04:21:45.290Z,80.05
2023-10-20T04:24:12.826Z,83.25
2023-10-20T04:26:44.412Z,77.25
2023-10-20T04:29:15.075Z,78.13
2023-10-20T04:32:01.911Z,80.60
2023-10-20T04:34:48.560Z,81.13
2023-10-20T04:37:34.876Z,73.78
2023-10-20T04:40:21.512Z,77.45
2023-10-20T04:43:08.288Z,72.30
2023-10-20T04:45:35.949Z,72.07
2023-10-20T04:48:09.733Z,74.05
2023-10-20T04:51:09.398Z,72.07
2023-10-20T04:53:37.050Z,70.68
2023-10-20T04:56:05.141Z,68.82
2023-10-20T04:58:36.806Z,68.32
2023-10-20T05:01:36.565Z,67.95
2023-10-20T05:04:14.830Z,70.97
2023-10-20T05:06:46.133Z,66.63
2023-10-20T05:09:16.796Z,67.85
2023-10-20T05:11:44.446Z,66.68
2023-10-20T05:14:12.527Z,67.00
2023-10-20T05:16:40.013Z,65.10
2023-10-20T05:19:07.663Z,62.30
2023-10-20T05:21:36.039Z,62.13
2023-10-20T05:24:05.243Z,63.65
2023-10-20T05:26:33.435Z,60.75
2023-10-20T05:29:01.275Z,68.03
2023-10-20T05:31:31.434Z,59.35
2023-10-20T05:33:59.190Z,60.88
2023-10-20T05:36:27.560Z,59.42
2023-10-20T05:38:55.104Z,59.00
2023-10-20T05:41:23.226Z,60.13
2023-10-20T05:43:54.039Z,55.63
2023-10-20T05:46:21.821Z,58.92
2023-10-20T05:48:50.701Z,55.65
2023-10-20T05:51:18.534Z,59.13
2023-10-20T05:53:46.143Z,57.20
2023-10-20T05:56:14.179Z,62.85
2023-10-20T05:58:41.769Z,60.63
2023-10-20T06:01:10.715Z,54.30
2023-10-20T06:03:39.428Z,64.05
2023-10-20T06:06:07.456Z,55.92
2023-10-20T06:08:35.377Z,61.78
2023-10-20T06:11:04.217Z,55.85
2023-10-20T06:13:36.915Z,53.00
2023-10-20T06:16:12.401Z,56.53
2023-10-20T06:18:41.300Z,54.70
2023-10-20T06:21:13.293Z,54.65
2023-10-20T06:23:41.699Z,53.95
2023-10-20T06:26:09.570Z,54.70
2023-10-20T06:28:37.457Z,57.80
2023-10-20T06:31:23.634Z,51.40
2023-10-20T06:33:58.995Z,56.75
2023-10-20T06:36:27.527Z,54.75
2023-10-20T06:38:55.706Z,50.83
2023-10-20T06:41:23.391Z,57.45
2023-10-20T06:43:52.443Z,65.32
2023-10-20T06:46:23.254Z,59.08
2023-10-20T06:48:51.009Z,62.38
2023-10-20T06:51:18.784Z,56.25
2023-10-20T06:53:46.605Z,56.60
2023-10-20T06:56:16.762Z,57.83
2023-10-20T06:58:46.372Z,56.67
2023-10-20T07:01:14.625Z,51.55
2023-10-20T07:03:42.986Z,61.42
2023-10-20T07:06:12.910Z,55.72
2023-10-20T07:08:41.142Z,53.10
2023-10-20T07:11:09.089Z,56.75
2023-10-20T07:13:36.590Z,51.83
2023-10-20T07:16:04.445Z,55.33
2023-10-20T07:18:32.120Z,51.20
2023-10-20T07:20:59.832Z,48.90
2023-10-20T07:23:27.623Z,47.60
2023-10-20T07:25:55.351Z,45.35
2023-10-20T07:28:23.509Z,48.22
2023-10-20T07:30:51.461Z,49.22
2023-10-20T07:33:19.322Z,49.03
2023-10-20T07:35:47.258Z,47.03
2023-10-20T07:38:14.958Z,47.63
2023-10-20T07:40:42.944Z,38.88
2023-10-20T07:43:12.342Z,39.67
2023-10-20T07:45:41.869Z,38.97
2023-10-20T07:48:09.778Z,40.70
2023-10-20T07:50:38.034Z,31.05
2023-10-20T07:53:06.879Z,33.33
2023-10-20T07:55:34.741Z,34.08
2023-10-20T07:58:02.315Z,31.95
2023-10-20T08:00:31.288Z,34.72
2023-10-20T08:02:59.105Z,30.38
2023-10-20T08:05:27.681Z,32.08
2023-10-20T08:07:56.229Z,32.70
2023-10-20T08:10:24.495Z,31.20
2023-10-20T08:12:52.425Z,31.50
2023-10-20T08:15:20.694Z,34.35
2023-10-20T08:17:49.758Z,29.13
2023-10-20T08:20:17.751Z,31.17
2023-10-20T08:22:45.439Z,29.10
2023-10-20T08:25:13.276Z,29.17
2023-10-20T08:27:40.895Z,28.83
2023-10-20T08:30:09.105Z,26.77
2023-10-20T08:32:37.125Z,26.17
2023-10-20T08:35:06.642Z,29.15
2023-10-20T08:37:34.296Z,29.92
2023-10-20T08:40:02.012Z,25.55
2023-10-20T08:42:31.193Z,27.83
2023-10-20T08:44:58.919Z,29.67
2023-10-20T08:47:29.061Z,30.98
2023-10-20T08:49:56.928Z,34.92
2023-10-20T08:52:24.813Z,25.85
2023-10-20T08:54:53.582Z,28.50
2023-10-20T08:57:21.160Z,26.88
2023-10-20T08:59:52.499Z,29.13
2023-10-20T09:02:20.784Z,30.17
2023-10-20T09:04:54.934Z,32.78
2023-10-20T09:07:26.788Z,31.92
2023-10-20T09:09:54.403Z,31.55
2023-10-20T09:12:21.937Z,33.58
2023-10-20T09:14:49.796Z,31.55
2023-10-20T09:17:24.726Z,29.98
2023-10-20T09:19:52.691Z,32.83
2023-10-20T09:22:30.429Z,31.48
2023-10-20T09:24:58.404Z,30.95
2023-10-20T09:27:26.912Z,32.05
2023-10-20T09:29:57.588Z,29.70
2023-10-20T09:32:25.472Z,28.98
2023-10-20T09:34:55.493Z,30.60
2023-10-20T09:37:27.067Z,30.98
2023-10-20T09:39:56.282Z,30.38
2023-10-20T09:42:25.766Z,30.50
2023-10-20T09:45:04.551Z,31.05
2023-10-20T09:47:33.000Z,33.33
2023-10-20T09:50:01.530Z,30.77
2023-10-20T09:52:30.953Z,33.47
2023-10-20T09:54:59.526Z,34.35
2023-10-20T09:57:28.659Z,33.67
2023-10-20T09:59:56.396Z,34.25
2023-10-20T10:02:31.362Z,32.78
2023-10-20T10:04:59.475Z,35.63
2023-10-20T10:07:30.779Z,38.88
2023-10-20T10:09:58.776Z,35.80
2023-10-20T10:12:28.691Z,36.50
2023-10-20T10:15:15.309Z,37.28
2023-10-20T10:17:47.696Z,44.28
2023-10-20T10:20:25.664Z,41.40
2023-10-20T10:23:07.625Z,45.50
2023-10-20T10:25:54.916Z,37.78
2023-10-20T10:28:23.095Z,37.00
2023-10-20T10:30:54.463Z,32.90
2023-10-20T10:33:23.604Z,34.70
2023-10-20T10:35:51.785Z,32.00
2023-10-20T10:38:21.494Z,29.33
2023-10-20T10:40:49.648Z,30.05
2023-10-20T10:43:19.335Z,30.60
2023-10-20T10:45:46.801Z,28.83
2023-10-20T10:48:19.588Z,29.88
2023-10-20T10:50:49.188Z,30.95
2023-10-20T10:53:17.408Z,28.40
2023-10-20T10:55:45.302Z,26.95
2023-10-20T10:58:14.577Z,30.70
2023-10-20T11:00:43.237Z,29.30
2023-10-20T11:03:11.524Z,31.25
2023-10-20T11:05:40.572Z,28.83
2023-10-20T11:08:09.391Z,31.42
2023-10-20T11:10:38.931Z,31.98
2023-10-20T11:13:07.769Z,31.30
2023-10-20T11:15:36.646Z,30.77
2023-10-20T11:18:06.128Z,31.08
2023-10-20T11:20:35.172Z,30.60
2023-10-20T11:23:04.736Z,31.02
2023-10-20T11:25:32.387Z,27.88
2023-10-20T11:28:00.305Z,32.28
2023-10-20T11:30:28.513Z,28.73
2023-10-20T11:32:56.828Z,31.40
2023-10-20T11:35:28.628Z,30.10
2023-10-20T11:37:57.159Z,33.80
2023-10-20T11:40:25.287Z,30.40
2023-10-20T11:42:53.192Z,27.38
2023-10-20T11:45:21.906Z,30.15
2023-10-20T11:47:50.004Z,31.02
2023-10-20T11:50:23.311Z,34.10
2023-10-20T11:52:51.305Z,30.65
2023-10-20T11:55:19.794Z,32.83
2023-10-20T11:57:47.724Z,36.00
2023-10-20T12:00:15.489Z,38.45
2023-10-20T12:02:43.490Z,30.60
2023-10-20T12:05:11.568Z,34.90
2023-10-20T12:07:39.264Z,30.08
2023-10-20T12:10:07.408Z,33.28
2023-10-20T12:12:35.854Z,32.88
2023-10-20T12:15:04.275Z,31.92
2023-10-20T12:17:32.138Z,31.40
2023-10-20T12:19:59.992Z,38.92
2023-10-20T12:22:28.105Z,28.17
2023-10-20T12:24:56.253Z,33.53
2023-10-20T12:27:23.876Z,33.83
2023-10-20T12:29:51.437Z,30.10
2023-10-20T12:32:19.153Z,33.80
2023-10-20T12:34:46.894Z,26.98
2023-10-20T12:37:15.406Z,23.52
2023-10-20T12:39:43.665Z,35.53
2023-10-20T12:42:11.193Z,32.83
2023-10-20T12:44:40.046Z,35.03
2023-10-20T12:47:07.802Z,37.35
2023-10-20T12:49:35.626Z,38.75
2023-10-20T12:52:04.272Z,39.75
2023-10-20T12:54:32.085Z,39.65
2023-10-20T12:57:01.501Z,40.22
2023-10-20T12:59:30.159Z,33.63
2023-10-20T13:01:58.028Z,38.10
2023-10-20T13:04:25.862Z,40.53
2023-10-20T13:07:00.706Z,34.78
2023-10-20T13:09:29.234Z,38.17
2023-10-20T13:12:00.381Z,38.85
2023-10-20T13:14:29.675Z,32.42
2023-10-20T13:16:58.463Z,42.55
2023-10-20T13:19:26.187Z,35.15
2023-10-20T13:21:54.064Z,38.35
2023-10-20T13:24:22.005Z,33.35
2023-10-20T13:26:50.663Z,31.63
2023-10-20T13:29:18.256Z,29.25
2023-10-20T13:31:45.940Z,29.45
2023-10-20T13:34:13.685Z,19.67
2023-10-20T13:36:41.358Z,17.98
2023-10-20T13:41:39.972Z,22.35
2023-10-20T13:44:09.398Z,19.05
2023-10-20T13:46:37.008Z,22.75
2023-10-20T13:49:04.629Z,20.75
2023-10-20T13:51:32.128Z,19.10
2023-10-20T13:53:59.792Z,14.13
2023-10-20T13:56:28.014Z,15.07
2023-10-20T13:58:55.619Z,16.42
2023-10-20T14:01:23.727Z,17.00
2023-10-20T14:03:51.402Z,15.60
2023-10-20T14:06:19.274Z,15.45
2023-10-20T14:08:46.903Z,17.25
2023-10-20T14:11:16.043Z,14.70
2023-10-20T14:13:44.000Z,20.88
2023-10-20T14:16:11.543Z,16.08
2023-10-20T14:18:39.730Z,18.63
2023-10-20T14:21:07.750Z,21.73
2023-10-20T14:23:36.631Z,15.23
2023-10-20T14:26:04.458Z,20.05
2023-10-20T14:28:35.132Z,17.27
2023-10-20T14:31:03.350Z,22.42
2023-10-20T14:33:31.422Z,12.48
2023-10-20T14:35:59.265Z,15.75
2023-10-20T14:38:27.552Z,16.95
2023-10-20T14:41:05.193Z,18.23
2023-10-20T14:43:36.318Z,15.43
2023-10-20T14:46:05.161Z,13.52
2023-10-20T14:48:33.185Z,22.02
2023-10-20T14:51:01.857Z,15.30
2023-10-20T14:53:30.031Z,21.40
2023-10-20T14:55:57.712Z,15.65
2023-10-20T14:58:25.622Z,15.48
2023-10-20T15:00:53.392Z,15.90
2023-10-20T15:03:22.275Z,17.65
2023-10-20T15:05:51.074Z,16.88
2023-10-20T15:08:19.403Z,19.20
2023-10-20T15:10:46.979Z,19.50
2023-10-20T15:13:16.262Z,19.08
2023-10-20T15:15:44.066Z,18.52
2023-10-20T15:18:11.928Z,20.38
2023-10-20T15:20:41.582Z,14.52
2023-10-20T15:23:17.950Z,15.18
2023-10-20T15:25:46.726Z,17.08
2023-10-20T15:28:14.163Z,18.00
2023-10-20T15:30:41.819Z,20.35
2023-10-20T15:33:09.635Z,20.38
2023-10-20T15:35:40.241Z,15.75
2023-10-20T15:38:11.389Z,16.92
2023-10-20T15:40:39.658Z,15.98
2023-10-20T15:43:07.364Z,15.85
2023-10-20T15:45:34.897Z,14.98
2023-10-20T15:48:04.500Z,14.98
2023-10-20T15:50:34.037Z,13.30
2023-10-20T15:53:04.045Z,17.38
2023-10-20T15:55:31.897Z,15.68
2023-10-20T15:57:59.747Z,17.85
2023-10-20T16:00:27.913Z,18.92
2023-10-20T16:02:55.488Z,14.82
2023-10-20T16:05:23.414Z,22.00
2023-10-20T16:07:51.540Z,19.63
2023-10-20T16:10:19.253Z,17.60
2023-10-20T16:12:47.069Z,18.15
2023-10-20T16:15:15.077Z,18.88
2023-10-20T16:17:42.693Z,17.48
2023-10-20T16:20:11.073Z,17.27
2023-10-20T16:22:39.237Z,16.08
2023-10-20T16:25:07.252Z,15.13
2023-10-20T16:27:35.189Z,18.65
2023-10-20T16:30:04.637Z,15.15
2023-10-20T16:32:32.562Z,19.75
2023-10-20T16:35:00.160Z,15.35
2023-10-20T16:37:29.742Z,18.67
2023-10-20T16:39:57.303Z,17.75
2023-10-20T16:42:25.870Z,15.18
2023-10-20T16:44:54.063Z,15.25
2023-10-20T16:47:21.756Z,18.27
2023-10-20T16:49:52.400Z,18.58
2023-10-20T16:52:21.095Z,15.30
2023-10-20T16:54:52.753Z,18.25
2023-10-20T16:57:20.566Z,14.10
2023-10-20T16:59:48.349Z,15.98
2023-10-20T17:02:16.533Z,19.85
2023-10-20T17:04:44.142Z,18.38
2023-10-20T17:07:11.692Z,19.95
2023-10-20T17:09:39.309Z,16.50
2023-10-20T17:12:07.776Z,17.63
2023-10-20T17:14:35.711Z,15.45
2023-10-20T17:17:03.769Z,17.02
2023-10-20T17:19:31.333Z,17.13
2023-10-20T17:21:59.313Z,18.52
2023-10-20T17:24:27.620Z,17.42
2023-10-20T17:26:56.123Z,20.67
2023-10-20T17:29:24.019Z,18.55
2023-10-20T17:31:51.575Z,26.70
2023-10-20T17:34:19.368Z,21.48
2023-10-20T17:36:46.879Z,22.02
2023-10-20T17:39:14.725Z,30.52
2023-10-20T17:41:42.331Z,26.15
2023-10-20T17:44:10.278Z,22.95
2023-10-20T17:46:37.825Z,23.77
2023-10-20T17:49:06.648Z,23.98
2023-10-20T17:51:34.325Z,26.17
2023-10-20T17:54:02.308Z,20.98
2023-10-20T17:56:29.912Z,23.48
2023-10-20T17:58:57.768Z,24.05
2023-10-20T18:01:25.422Z,26.83
2023-10-20T18:03:53.286Z,24.02
2023-10-20T18:06:22.129Z,29.58
2023-10-20T18:08:52.632Z,25.50
2023-10-20T18:11:22.257Z,27.00
2023-10-20T18:13:52.667Z,26.42
2023-10-20T18:16:22.621Z,27.52
2023-10-20T18:18:51.840Z,26.58
2023-10-20T18:21:20.058Z,27.23
2023-10-20T18:23:48.413Z,21.27
2023-10-20T18:26:16.266Z,33.70
2023-10-20T18:28:45.125Z,27.52
2023-10-20T18:31:13.592Z,26.83
2023-10-20T18:33:41.636Z,30.75
2023-10-20T18:36:10.009Z,25.08
2023-10-20T18:38:37.661Z,25.48
2023-10-20T18:41:06.457Z,29.77
2023-10-20T18:43:34.934Z,27.45
2023-10-20T18:46:03.711Z,32.17
2023-10-20T18:48:31.498Z,27.02
2023-10-20T18:51:13.151Z,25.67
2023-10-20T18:53:42.550Z,30.35
2023-10-20T18:56:11.044Z,20.65
2023-10-20T18:58:38.670Z,21.98
2023-10-20T19:01:07.770Z,25.85
2023-10-20T19:03:35.646Z,34.20
2023-10-20T19:06:04.132Z,24.33
2023-10-20T19:08:32.037Z,24.38
2023-10-20T19:11:06.063Z,24.42
2023-10-20T19:13:35.214Z,23.65
2023-10-20T19:16:03.043Z,23.40
2023-10-20T19:18:30.825Z,28.30
2023-10-20T19:21:01.866Z,24.38
2023-10-20T19:23:29.738Z,21.45
2023-10-20T19:26:15.485Z,22.50
2023-10-20T19:28:43.704Z,23.25
2023-10-20T19:31:13.149Z,18.45
2023-10-20T19:33:41.343Z,25.98
2023-10-20T19:36:10.967Z,26.83
2023-10-20T19:38:39.471Z,26.13
2023-10-20T19:41:09.384Z,28.45
2023-10-20T19:43:37.143Z,31.17
2023-10-20T19:46:04.667Z,22.42
2023-10-20T19:48:32.520Z,26.60
2023-10-20T19:51:01.153Z,23.40
2023-10-20T19:53:28.911Z,26.00
2023-10-20T19:55:56.485Z,29.10
2023-10-20T19:58:24.438Z,25.13
2023-10-20T20:00:52.468Z,27.60
2023-10-20T20:03:20.335Z,30.02
2023-10-20T20:05:48.232Z,25.48
2023-10-20T20:08:15.849Z,25.98
2023-10-20T20:10:43.642Z,32.45
2023-10-20T20:13:11.563Z,27.50
2023-10-20T20:15:39.207Z,26.63
2023-10-20T20:18:07.287Z,27.45
2023-10-20T20:20:34.897Z,31.85
2023-10-20T20:23:02.756Z,28.92
2023-10-20T20:25:30.403Z,20.17
2023-10-20T20:27:58.297Z,25.13
2023-10-20T20:30:25.689Z,24.00
2023-10-20T20:32:53.617Z,36.90
2023-10-20T20:35:23.088Z,34.75
2023-10-20T20:37:51.149Z,28.63
2023-10-20T20:40:18.795Z,24.15
2023-10-20T20:42:48.195Z,38.85
2023-10-20T20:45:15.995Z,27.63
2023-10-20T20:47:43.917Z,31.35
2023-10-20T20:50:22.372Z,27.88
2023-10-20T20:52:58.436Z,33.38
2023-10-20T20:55:26.371Z,28.02
2023-10-20T20:57:54.472Z,29.38
2023-10-20T21:00:22.306Z,31.88
2023-10-20T21:02:50.560Z,27.50
2023-10-20T21:05:18.370Z,33.40
2023-10-20T21:07:45.942Z,27.35
2023-10-20T21:10:14.078Z,34.97
2023-10-20T21:12:42.994Z,31.95
2023-10-20T21:15:14.274Z,30.77
2023-10-20T21:17:42.338Z,31.90
2023-10-20T21:20:10.645Z,31.83
2023-10-20T21:22:38.459Z,35.90
2023-10-20T21:25:06.613Z,36.63
2023-10-20T21:27:34.173Z,40.88
2023-10-20T21:30:01.829Z,36.50
2023-10-20T21:32:29.551Z,38.20
2023-10-20T21:34:57.357Z,38.53
2023-10-20T21:37:25.023Z,33.95
2023-10-20T21:39:53.871Z,39.42
2023-10-20T21:42:21.431Z,39.45
2023-10-20T21:44:48.975Z,32.95
2023-10-20T21:47:17.800Z,31.35
2023-10-20T21:49:45.641Z,32.33
2023-10-20T21:52:13.277Z,36.92
2023-10-20T21:54:41.128Z,46.15
2023-10-20T21:57:08.774Z,37.08
2023-10-20T21:59:36.841Z,31.23
2023-10-20T22:02:09.657Z,38.40
2023-10-20T22:04:38.705Z,33.38
2023-10-20T22:07:06.537Z,34.53
2023-10-20T22:09:46.596Z,36.00
2023-10-20T22:12:20.916Z,32.90
2023-10-20T22:14:48.804Z,35.60
2023-10-20T22:17:17.366Z,33.75
2023-10-20T22:19:45.658Z,35.72
2023-10-20T22:22:13.537Z,33.83
2023-10-20T22:24:41.573Z,35.97
2023-10-20T22:27:10.151Z,30.63
2023-10-20T22:29:38.683Z,37.83
2023-10-20T22:32:06.888Z,42.50
2023-10-20T22:34:35.434Z,35.00
2023-10-20T22:37:03.483Z,32.63
2023-10-20T22:39:31.229Z,39.08
2023-10-20T22:42:01.639Z,37.88
2023-10-20T22:44:29.786Z,33.22
2023-10-20T22:46:57.740Z,47.15
2023-10-20T22:49:26.234Z,41.50
2023-10-20T22:51:54.628Z,34.17
2023-10-20T22:54:22.900Z,35.78
2023-10-20T22:56:51.211Z,35.75
2023-10-20T22:59:20.786Z,36.30
2023-10-20T23:01:48.572Z,37.33
2023-10-20T23:04:18.887Z,37.10
2023-10-20T23:06:48.404Z,33.33
2023-10-20T23:09:16.505Z,42.40
2023-10-20T23:11:44.962Z,34.00
2023-10-20T23:14:13.517Z,38.53
2023-10-20T23:16:42.637Z,41.55
2023-10-20T23:19:11.226Z,41.15
2023-10-20T23:21:38.881Z,31.88
2023-10-20T23:24:06.888Z,38.97
2023-10-20T23:26:34.455Z,33.42
2023-10-20T23:29:02.005Z,37.03
2023-10-20T23:31:29.630Z,30.60
2023-10-20T23:33:57.446Z,37.17
2023-10-20T23:36:25.112Z,33.65
2023-10-20T23:38:52.652Z,36.42
2023-10-20T23:41:20.476Z,30.80
2023-10-20T23:43:48.166Z,35.40
2023-10-20T23:46:15.924Z,47.38
2023-10-20T23:48:43.567Z,38.53
2023-10-20T23:51:11.466Z,35.17
2023-10-20T23:53:39.409Z,38.97
2023-10-20T23:56:07.499Z,32.50
2023-10-20T23:58:35.297Z,34.72
